Terminal Aerodrome Forecast
Issued by NWS

Home | Current Version | Previous Version | Graphics & Text | Print | Product List | Glossary On
Versions: 1 2 3 4 5 6 7 8 9 10 11 12 13 14 15
000
FTUS45 KGGW 182325
TAFGDV
TAF
KGDV 182325Z 1900/1924 12008KT P6SM VCSH SCT090
     FM190300 08007KT P6SM VCSH SCT110
     FM190900 12005KT P6SM BKN110
     FM191200 12005KT P6SM VCSH SCT100 PROB30 1912/1918 6SM TS
      BKN024CB
     FM191800 04006KT P6SM FEW110=

USA.gov is the U.S. government's official web portal to all federal, state and local government web resources and services.